createdAt,value
2023-04-18T00:01:17.800Z,8.30
2023-04-18T00:03:45.849Z,8.20
2023-04-18T00:06:14.092Z,8.20
2023-04-18T00:08:41.368Z,8.20
2023-04-18T00:11:08.631Z,8.30
2023-04-18T00:13:35.803Z,8.10
2023-04-18T00:16:03.198Z,8.20
2023-04-18T00:18:30.366Z,8.20
2023-04-18T00:20:57.521Z,8.20
2023-04-18T00:23:28.350Z,8.20
2023-04-18T00:25:55.586Z,8.20
2023-04-18T00:28:22.986Z,8.20
2023-04-18T00:30:50.370Z,8.20
2023-04-18T00:33:17.842Z,8.20
2023-04-18T00:35:45.079Z,8.20
2023-04-18T00:38:12.539Z,8.20
2023-04-18T00:40:41.082Z,8.10
2023-04-18T00:43:08.464Z,8.10
2023-04-18T00:45:36.921Z,8.10
2023-04-18T00:48:04.313Z,8.10
2023-04-18T00:50:32.572Z,8.10
2023-04-18T00:52:59.804Z,8.30
2023-04-18T00:55:27.064Z,8.20
2023-04-18T00:57:54.345Z,8.10
2023-04-18T01:00:21.657Z,8.10
2023-04-18T01:02:52.979Z,8.10
2023-04-18T01:05:21.377Z,8.10
2023-04-18T01:07:48.962Z,8.10
2023-04-18T01:10:16.247Z,8.10
2023-04-18T01:12:43.439Z,8.10
2023-04-18T01:15:11.747Z,8.10
2023-04-18T01:17:39.694Z,8.10
2023-04-18T01:20:07.897Z,8.10
2023-04-18T01:22:35.282Z,8.00
2023-04-18T01:25:07.501Z,8.00
2023-04-18T01:27:34.674Z,8.00
2023-04-18T01:30:01.857Z,8.00
2023-04-18T01:32:30.538Z,7.90
2023-04-18T01:34:57.766Z,7.90
2023-04-18T01:37:24.968Z,7.90
2023-04-18T01:39:52.473Z,7.90
2023-04-18T01:42:19.640Z,7.80
2023-04-18T01:44:46.818Z,7.70
2023-04-18T01:47:13.989Z,7.70
2023-04-18T01:49:46.597Z,7.80
2023-04-18T01:52:14.297Z,7.70
2023-04-18T01:54:41.541Z,7.70
2023-04-18T01:57:08.745Z,7.70
2023-04-18T01:59:35.984Z,7.70
2023-04-18T02:02:03.370Z,7.70
2023-04-18T02:04:30.678Z,7.80
2023-04-18T02:06:57.856Z,7.80
2023-04-18T02:09:25.549Z,7.80
2023-04-18T02:11:54.226Z,7.80
2023-04-18T02:14:21.759Z,7.80
2023-04-18T02:16:49.114Z,7.80
2023-04-18T02:19:17.533Z,7.80
2023-04-18T02:21:44.913Z,7.90
2023-04-18T02:24:12.221Z,7.90
2023-04-18T02:26:39.549Z,7.80
2023-04-18T02:29:06.808Z,7.80
2023-04-18T02:31:34.160Z,7.80
2023-04-18T02:34:01.463Z,7.80
2023-04-18T02:36:28.664Z,7.80
2023-04-18T02:38:55.862Z,7.80
2023-04-18T02:41:23.578Z,7.70
2023-04-18T02:43:50.886Z,7.80
2023-04-18T02:46:19.889Z,7.80
2023-04-18T02:48:49.020Z,7.80
2023-04-18T02:51:17.068Z,7.80
2023-04-18T02:53:44.258Z,7.70
2023-04-18T02:56:12.870Z,7.80
2023-04-18T02:58:58.672Z,7.70
2023-04-18T03:01:41.849Z,7.70
2023-04-18T03:04:12.823Z,7.70
2023-04-18T03:06:44.089Z,7.70
2023-04-18T03:09:11.714Z,7.80
2023-04-18T03:11:45.017Z,7.80
2023-04-18T03:14:13.211Z,7.70
2023-04-18T03:16:48.419Z,7.70
2023-04-18T03:19:20.316Z,7.70
2023-04-18T03:21:47.516Z,7.70
2023-04-18T03:24:14.997Z,7.60
2023-04-18T03:26:46.042Z,7.60
2023-04-18T03:29:13.566Z,7.50
2023-04-18T03:31:43.916Z,7.50
2023-04-18T03:34:11.428Z,7.50
2023-04-18T03:36:39.263Z,7.50
2023-04-18T03:39:06.702Z,7.50
2023-04-18T03:41:35.105Z,7.60
2023-04-18T03:44:03.521Z,7.60
2023-04-18T03:46:34.649Z,7.60
2023-04-18T03:49:02.388Z,7.60
2023-04-18T03:51:43.286Z,7.60
2023-04-18T03:54:10.639Z,7.60
2023-04-18T03:56:37.917Z,7.50
2023-04-18T03:59:05.462Z,7.60
2023-04-18T04:01:33.368Z,7.60
2023-04-18T04:04:01.759Z,7.60
2023-04-18T04:06:29.786Z,7.60
2023-04-18T04:08:57.300Z,7.60
2023-04-18T04:11:27.110Z,7.60
2023-04-18T04:13:54.339Z,7.60
2023-04-18T04:16:27.869Z,7.60
2023-04-18T04:18:56.018Z,7.60
2023-04-18T04:21:27.826Z,7.60
2023-04-18T04:23:55.149Z,7.60
2023-04-18T04:26:36.963Z,7.60
2023-04-18T04:29:13.961Z,7.60
2023-04-18T04:31:43.175Z,7.50
2023-04-18T04:34:10.662Z,7.50
2023-04-18T04:36:39.695Z,7.50
2023-04-18T04:39:08.806Z,7.70
2023-04-18T04:42:04.376Z,7.50
2023-04-18T04:44:41.538Z,7.50
2023-04-18T04:47:09.334Z,7.40
2023-04-18T04:49:38.863Z,7.40
2023-04-18T04:52:06.470Z,7.40
2023-04-18T04:54:33.744Z,7.40
2023-04-18T04:57:02.221Z,7.40
2023-04-18T04:59:29.708Z,7.40
2023-04-18T05:01:57.465Z,7.40
2023-04-18T05:04:25.970Z,7.40
2023-04-18T05:06:53.528Z,7.40
2023-04-18T05:09:20.917Z,7.40
2023-04-18T05:11:49.385Z,7.40
2023-04-18T05:14:17.720Z,7.50
2023-04-18T05:16:44.994Z,7.50
2023-04-18T05:19:12.236Z,7.50
2023-04-18T05:21:39.391Z,7.50
2023-04-18T05:24:06.556Z,7.50
2023-04-18T05:26:33.774Z,7.50
2023-04-18T05:29:01.019Z,7.50
2023-04-18T05:31:28.324Z,7.50
2023-04-18T05:33:55.725Z,7.50
2023-04-18T05:36:23.168Z,7.60
2023-04-18T05:38:50.794Z,7.70
2023-04-18T05:41:17.945Z,7.70
2023-04-18T05:43:54.201Z,7.80
2023-04-18T05:46:29.593Z,7.80
2023-04-18T05:48:57.029Z,7.90
2023-04-18T05:51:24.237Z,8.00
2023-04-18T05:53:51.438Z,8.10
2023-04-18T05:56:18.718Z,8.10
2023-04-18T05:58:47.456Z,8.20
2023-04-18T06:01:14.634Z,8.40
2023-04-18T06:03:42.264Z,8.50
2023-04-18T06:06:10.042Z,8.60
2023-04-18T06:08:39.147Z,8.80
2023-04-18T06:11:06.451Z,8.90
2023-04-18T06:13:33.998Z,9.00
2023-04-18T06:16:01.380Z,9.10
2023-04-18T06:18:28.610Z,9.10
2023-04-18T06:20:55.756Z,9.20
2023-04-18T06:23:22.902Z,9.20
2023-04-18T06:25:50.459Z,9.30
2023-04-18T06:28:17.718Z,9.40
2023-04-18T06:30:45.094Z,9.40
2023-04-18T06:33:12.297Z,9.50
2023-04-18T06:35:39.563Z,9.40
2023-04-18T06:38:06.834Z,9.40
2023-04-18T06:40:34.188Z,9.40
2023-04-18T06:43:01.471Z,9.40
2023-04-18T06:45:30.992Z,9.50
2023-04-18T06:47:59.757Z,9.60
2023-04-18T06:50:27.119Z,9.90
2023-04-18T06:52:54.345Z,10.00
2023-04-18T06:55:21.541Z,10.10
2023-04-18T06:57:48.792Z,10.20
2023-04-18T07:00:16.288Z,10.30
2023-04-18T07:02:43.709Z,10.40
2023-04-18T07:05:11.079Z,10.50
2023-04-18T07:07:38.266Z,10.40
2023-04-18T07:10:06.977Z,10.40
2023-04-18T07:12:34.168Z,10.40
2023-04-18T07:15:01.607Z,10.40
2023-04-18T07:17:28.864Z,10.30
2023-04-18T07:19:56.183Z,10.40
2023-04-18T07:22:23.370Z,10.40
2023-04-18T07:24:50.590Z,10.40
2023-04-18T07:27:17.753Z,10.30
2023-04-18T07:29:44.925Z,10.30
2023-04-18T07:32:12.070Z,10.30
2023-04-18T07:34:40.188Z,10.20
2023-04-18T07:37:07.469Z,10.40
2023-04-18T07:39:36.124Z,10.20
2023-04-18T07:42:04.314Z,10.20
2023-04-18T07:44:31.647Z,10.20
2023-04-18T07:46:58.817Z,10.40
2023-04-18T07:49:26.012Z,10.30
2023-04-18T07:51:53.212Z,10.40
2023-04-18T07:54:20.363Z,10.50
2023-04-18T07:56:47.538Z,10.70
2023-04-18T07:59:14.928Z,10.80
2023-04-18T08:01:42.161Z,11.00
2023-04-18T08:04:09.433Z,10.90
2023-04-18T08:06:36.803Z,10.90
2023-04-18T08:09:05.392Z,10.90
2023-04-18T08:11:33.608Z,10.80
2023-04-18T08:14:01.158Z,10.70
2023-04-18T08:16:28.911Z,10.80
2023-04-18T08:18:56.123Z,10.80
2023-04-18T08:21:23.481Z,10.90
2023-04-18T08:23:50.751Z,10.80
2023-04-18T08:26:18.067Z,10.80
2023-04-18T08:28:46.602Z,10.70
2023-04-18T08:31:14.925Z,10.70
2023-04-18T08:33:42.731Z,10.50
2023-04-18T08:36:10.405Z,10.30
2023-04-18T08:38:37.612Z,10.20
2023-04-18T08:41:04.856Z,10.00
2023-04-18T08:43:32.059Z,10.10
2023-04-18T08:46:00.588Z,10.10
2023-04-18T08:48:28.284Z,10.10
2023-04-18T08:50:59.404Z,10.00
2023-04-18T08:53:27.370Z,10.10
2023-04-18T08:55:57.840Z,10.10
2023-04-18T08:58:27.657Z,10.10
2023-04-18T09:00:55.331Z,10.20
2023-04-18T09:03:42.963Z,10.20
2023-04-18T09:06:20.182Z,10.20
2023-04-18T09:09:10.637Z,10.20
2023-04-18T09:11:37.878Z,10.30
2023-04-18T09:14:05.661Z,10.20
2023-04-18T09:16:46.847Z,10.40
2023-04-18T09:19:19.059Z,10.40
2023-04-18T09:21:47.165Z,10.40
2023-04-18T09:24:26.255Z,10.50
2023-04-18T09:26:55.729Z,10.50
2023-04-18T09:29:46.935Z,10.40
2023-04-18T09:32:29.396Z,10.40
2023-04-18T09:35:00.593Z,10.40
2023-04-18T09:37:29.713Z,10.30
2023-04-18T09:39:56.904Z,10.40
2023-04-18T09:42:26.128Z,10.50
2023-04-18T09:45:01.182Z,10.60
2023-04-18T09:47:28.531Z,10.50
2023-04-18T09:49:55.848Z,10.50
2023-04-18T09:52:25.793Z,10.50
2023-04-18T09:54:58.469Z,10.50
2023-04-18T09:57:28.897Z,10.50
2023-04-18T10:00:24.164Z,10.60
2023-04-18T10:02:58.578Z,10.70
2023-04-18T10:05:28.576Z,10.70
2023-04-18T10:07:56.669Z,10.80
2023-04-18T10:10:24.586Z,11.00
2023-04-18T10:12:55.162Z,11.20
2023-04-18T10:15:24.615Z,11.30
2023-04-18T10:18:14.112Z,11.30
2023-04-18T10:20:41.847Z,11.30
2023-04-18T10:23:30.978Z,11.30
2023-04-18T10:25:59.118Z,11.20
2023-04-18T10:28:27.989Z,11.10
2023-04-18T10:31:05.607Z,11.10
2023-04-18T10:33:52.812Z,11.00
2023-04-18T10:36:28.893Z,10.90
2023-04-18T10:39:20.370Z,10.90
2023-04-18T10:41:51.433Z,10.90
2023-04-18T10:44:22.116Z,10.90
2023-04-18T10:46:52.356Z,10.90
2023-04-18T10:49:30.284Z,10.90
2023-04-18T10:52:00.899Z,11.00
2023-04-18T10:54:48.918Z,10.80
2023-04-18T10:57:16.113Z,11.00
2023-04-18T10:59:49.850Z,10.90
2023-04-18T11:02:29.944Z,10.80
2023-04-18T11:05:04.546Z,10.80
2023-04-18T11:07:46.189Z,10.80
2023-04-18T11:10:16.297Z,11.00
2023-04-18T11:12:43.557Z,11.30
2023-04-18T11:15:17.300Z,11.70
2023-04-18T11:17:44.772Z,12.00
2023-04-18T11:20:14.319Z,12.20
2023-04-18T11:22:48.945Z,12.20
2023-04-18T11:25:17.432Z,12.20
2023-04-18T11:27:46.365Z,12.00
2023-04-18T11:30:14.939Z,11.90
2023-04-18T11:32:42.135Z,11.90
2023-04-18T11:35:10.906Z,11.90
2023-04-18T11:37:39.530Z,11.80
2023-04-18T11:40:09.782Z,11.90
2023-04-18T11:42:39.223Z,11.90
2023-04-18T11:45:15.889Z,11.80
2023-04-18T11:47:43.609Z,11.70
2023-04-18T11:50:12.623Z,11.70
2023-04-18T11:52:42.229Z,11.70
2023-04-18T11:55:13.897Z,11.80
2023-04-18T11:57:41.845Z,12.00
2023-04-18T12:00:12.110Z,12.40
2023-04-18T12:02:44.870Z,12.80
2023-04-18T12:05:14.622Z,13.20
2023-04-18T12:07:44.755Z,13.50
2023-04-18T12:10:30.385Z,13.60
2023-04-18T12:12:58.820Z,13.60
2023-04-18T12:15:28.483Z,13.80
2023-04-18T12:18:00.651Z,13.80
2023-04-18T12:20:54.528Z,13.70
2023-04-18T12:23:36.012Z,13.70
2023-04-18T12:26:07.169Z,13.60
2023-04-18T12:28:35.164Z,13.70
2023-04-18T12:31:02.958Z,13.70
2023-04-18T12:33:30.512Z,13.70
2023-04-18T12:35:57.727Z,14.00
2023-04-18T12:38:24.959Z,13.80
2023-04-18T12:40:52.496Z,13.80
2023-04-18T12:43:20.053Z,13.90
2023-04-18T12:45:47.439Z,14.00
2023-04-18T12:48:14.718Z,13.90
2023-04-18T12:50:41.977Z,13.90
2023-04-18T12:53:09.171Z,13.80
2023-04-18T12:55:36.727Z,13.80
2023-04-18T12:58:04.081Z,13.70
2023-04-18T13:00:32.663Z,13.60
2023-04-18T13:03:00.156Z,13.40
2023-04-18T13:05:32.527Z,13.20
2023-04-18T13:10:31.334Z,13.00
2023-04-18T13:12:58.515Z,12.80
2023-04-18T13:15:27.244Z,12.80
2023-04-18T13:17:56.362Z,12.80
2023-04-18T13:20:23.735Z,12.90
2023-04-18T13:22:50.894Z,13.00
2023-04-18T13:25:18.273Z,12.90
2023-04-18T13:27:45.893Z,12.90
2023-04-18T13:30:13.347Z,12.90
2023-04-18T13:32:42.158Z,12.90
2023-04-18T13:35:11.090Z,12.90
2023-04-18T13:37:39.111Z,12.80
2023-04-18T13:40:07.072Z,12.80
2023-04-18T13:42:35.988Z,12.80
2023-04-18T13:45:03.818Z,12.60
2023-04-18T13:47:31.205Z,12.60
2023-04-18T13:49:58.517Z,12.60
2023-04-18T13:52:26.077Z,12.50
2023-04-18T13:54:53.340Z,12.50
2023-04-18T13:57:20.820Z,12.40
2023-04-18T13:59:48.045Z,12.30
2023-04-18T14:02:15.707Z,12.20
2023-04-18T14:04:43.089Z,12.10
2023-04-18T14:07:10.683Z,11.90
2023-04-18T14:09:38.005Z,11.70
2023-04-18T14:12:06.160Z,11.60
2023-04-18T14:14:33.301Z,11.60
2023-04-18T14:17:00.540Z,11.60
2023-04-18T14:19:27.800Z,11.50
2023-04-18T14:21:55.036Z,11.40
2023-04-18T14:24:23.309Z,11.30
2023-04-18T14:26:50.489Z,11.10
2023-04-18T14:29:17.685Z,11.10
2023-04-18T14:31:45.122Z,11.00
2023-04-18T14:34:12.328Z,11.00
2023-04-18T14:36:39.477Z,11.00
2023-04-18T14:39:06.806Z,11.10
2023-04-18T14:41:33.997Z,11.10
2023-04-18T14:44:01.251Z,11.10
2023-04-18T14:46:29.123Z,11.10
2023-04-18T14:48:56.994Z,11.20
2023-04-18T14:51:24.353Z,11.20
2023-04-18T14:53:51.644Z,11.20
2023-04-18T14:56:21.408Z,11.20
2023-04-18T14:58:48.733Z,11.40
2023-04-18T15:01:17.440Z,11.30
2023-04-18T15:03:45.603Z,11.40
2023-04-18T15:06:13.134Z,11.40
2023-04-18T15:08:40.558Z,11.30
2023-04-18T15:11:08.642Z,11.30
2023-04-18T15:13:36.196Z,11.30
2023-04-18T15:16:03.524Z,11.30
2023-04-18T15:18:30.765Z,11.30
2023-04-18T15:20:59.848Z,11.30
2023-04-18T15:23:27.473Z,11.20
2023-04-18T15:25:54.859Z,11.30
2023-04-18T15:28:22.060Z,11.20
2023-04-18T15:30:49.231Z,11.20
2023-04-18T15:33:17.942Z,11.10
2023-04-18T15:35:45.948Z,11.00
2023-04-18T15:38:13.429Z,10.90
2023-04-18T15:40:40.834Z,11.00
2023-04-18T15:43:08.099Z,11.00
2023-04-18T15:45:35.951Z,10.90
2023-04-18T15:48:03.204Z,10.90
2023-04-18T15:50:32.180Z,10.90
2023-04-18T15:53:01.415Z,10.90
2023-04-18T15:55:28.607Z,11.00
2023-04-18T15:57:56.432Z,10.90
2023-04-18T16:00:24.170Z,10.90
2023-04-18T16:02:51.854Z,10.90
2023-04-18T16:05:19.387Z,10.90
2023-04-18T16:07:46.577Z,11.10
2023-04-18T16:10:15.154Z,10.90
2023-04-18T16:12:42.468Z,10.90
2023-04-18T16:15:10.410Z,10.90
2023-04-18T16:17:37.992Z,10.90
2023-04-18T16:20:06.207Z,10.80
2023-04-18T16:22:33.659Z,10.90
2023-04-18T16:25:00.860Z,10.90
2023-04-18T16:27:28.396Z,10.90
2023-04-18T16:29:55.715Z,10.90
2023-04-18T16:32:22.947Z,11.00
2023-04-18T16:34:50.248Z,11.00
2023-04-18T16:37:17.534Z,11.10
2023-04-18T16:39:44.679Z,11.00
2023-04-18T16:42:14.022Z,11.00
2023-04-18T16:44:44.581Z,11.00
2023-04-18T16:47:11.857Z,10.90
2023-04-18T16:49:39.056Z,10.90
2023-04-18T16:52:06.254Z,10.90
2023-04-18T16:54:33.426Z,10.80
2023-04-18T16:57:01.596Z,10.80
2023-04-18T16:59:28.770Z,10.80
2023-04-18T17:01:56.063Z,10.60
2023-04-18T17:04:26.619Z,10.70
2023-04-18T17:06:53.870Z,10.70
2023-04-18T17:09:21.234Z,10.60
2023-04-18T17:11:48.870Z,10.60
2023-04-18T17:14:17.336Z,10.50
2023-04-18T17:16:44.705Z,10.50
2023-04-18T17:19:12.131Z,10.50
2023-04-18T17:21:39.439Z,10.60
2023-04-18T17:24:07.243Z,10.60
2023-04-18T17:26:35.621Z,10.60
2023-04-18T17:29:04.038Z,10.50
2023-04-18T17:31:32.054Z,10.50
2023-04-18T17:33:59.914Z,10.40
2023-04-18T17:36:27.138Z,10.40
2023-04-18T17:38:54.334Z,10.30
2023-04-18T17:41:21.896Z,10.30
2023-04-18T17:43:50.942Z,10.40
2023-04-18T17:46:18.424Z,10.10
2023-04-18T17:48:45.728Z,10.20
2023-04-18T17:51:12.916Z,10.10
2023-04-18T17:53:40.078Z,10.10
2023-04-18T17:56:07.272Z,10.10
2023-04-18T17:58:34.439Z,10.00
2023-04-18T18:01:01.664Z,10.00
2023-04-18T18:03:28.986Z,9.80
2023-04-18T18:05:56.317Z,9.90
2023-04-18T18:08:24.175Z,9.80
2023-04-18T18:10:51.403Z,9.80
2023-04-18T18:13:18.536Z,9.80
2023-04-18T18:15:45.765Z,9.80
2023-04-18T18:18:26.911Z,9.60
2023-04-18T18:20:54.658Z,9.80
2023-04-18T18:23:22.073Z,9.70
2023-04-18T18:25:50.576Z,9.70
2023-04-18T18:28:17.798Z,9.70
2023-04-18T18:30:44.996Z,9.70
2023-04-18T18:33:12.144Z,9.70
2023-04-18T18:35:39.352Z,9.80
2023-04-18T18:38:07.043Z,9.70
2023-04-18T18:40:34.254Z,9.80
2023-04-18T18:43:01.417Z,9.80
2023-04-18T18:45:28.725Z,9.80
2023-04-18T18:47:56.122Z,9.80
2023-04-18T18:50:23.306Z,9.90
2023-04-18T18:52:50.504Z,9.80
2023-04-18T18:55:18.864Z,9.90
2023-04-18T18:57:46.528Z,9.90
2023-04-18T19:00:14.200Z,9.90
2023-04-18T19:02:41.580Z,9.90
2023-04-18T19:05:09.436Z,9.90
2023-04-18T19:07:36.678Z,9.90
2023-04-18T19:10:04.631Z,9.90
2023-04-18T19:12:31.913Z,9.90
2023-04-18T19:14:59.057Z,9.80
2023-04-18T19:17:26.229Z,9.90
2023-04-18T19:19:53.486Z,9.80
2023-04-18T19:22:20.667Z,9.80
2023-04-18T19:24:47.968Z,9.90
2023-04-18T19:27:15.235Z,10.00
2023-04-18T19:29:42.509Z,9.90
2023-04-18T19:32:09.828Z,9.90
2023-04-18T19:34:37.625Z,9.90
2023-04-18T19:37:04.904Z,9.90
2023-04-18T19:39:32.263Z,9.90
2023-04-18T19:41:59.481Z,9.90
2023-04-18T19:44:26.663Z,9.90
2023-04-18T19:46:53.802Z,9.90
2023-04-18T19:49:22.336Z,9.90
2023-04-18T19:51:51.314Z,9.80
2023-04-18T19:54:21.625Z,9.90
2023-04-18T19:56:49.474Z,9.90
2023-04-18T19:59:16.766Z,9.90
2023-04-18T20:01:44.278Z,9.90
2023-04-18T20:04:11.673Z,9.90
2023-04-18T20:06:38.970Z,9.80
2023-04-18T20:09:06.261Z,9.80
2023-04-18T20:11:33.579Z,9.80
2023-04-18T20:14:00.907Z,9.80
2023-04-18T20:16:28.886Z,9.80
2023-04-18T20:18:56.488Z,9.70
2023-04-18T20:21:23.684Z,9.80
2023-04-18T20:23:51.026Z,9.80
2023-04-18T20:26:18.219Z,9.80
2023-04-18T20:28:45.489Z,9.80
2023-04-18T20:31:12.743Z,9.80
2023-04-18T20:33:40.022Z,9.70
2023-04-18T20:36:08.112Z,9.70
2023-04-18T20:38:36.838Z,9.70
2023-04-18T20:41:04.130Z,9.70
2023-04-18T20:43:36.448Z,9.70
2023-04-18T20:46:03.706Z,9.70
2023-04-18T20:48:30.927Z,9.70
2023-04-18T20:50:58.093Z,9.70
2023-04-18T20:53:26.932Z,9.60
2023-04-18T20:55:55.070Z,9.60
2023-04-18T20:58:22.236Z,9.60
2023-04-18T21:00:49.483Z,9.60
2023-04-18T21:03:17.056Z,9.60
2023-04-18T21:05:44.959Z,9.60
2023-04-18T21:08:12.486Z,9.70
2023-04-18T21:10:39.697Z,9.70
2023-04-18T21:13:07.041Z,9.70
2023-04-18T21:15:35.666Z,9.70
2023-04-18T21:18:03.051Z,9.70
2023-04-18T21:20:30.384Z,9.70
2023-04-18T21:22:57.517Z,9.80
2023-04-18T21:25:24.723Z,9.70
2023-04-18T21:27:51.884Z,9.70
2023-04-18T21:30:20.329Z,9.70
2023-04-18T21:32:49.335Z,9.60
2023-04-18T21:35:19.202Z,9.60
2023-04-18T21:37:47.649Z,9.50
2023-04-18T21:40:14.985Z,9.50
2023-04-18T21:42:42.414Z,9.50
2023-04-18T21:45:10.810Z,9.50
2023-04-18T21:47:38.456Z,9.40
2023-04-18T21:50:06.395Z,9.40
2023-04-18T21:52:33.829Z,9.40
2023-04-18T21:55:01.030Z,9.40
2023-04-18T21:57:28.215Z,9.50
2023-04-18T21:59:57.343Z,9.40
2023-04-18T22:02:25.770Z,9.40
2023-04-18T22:04:53.204Z,9.40
2023-04-18T22:07:20.386Z,9.30
2023-04-18T22:09:47.646Z,9.30
2023-04-18T22:12:15.435Z,9.30
2023-04-18T22:14:48.079Z,9.30
2023-04-18T22:17:15.508Z,9.30
2023-04-18T22:19:44.286Z,9.30
2023-04-18T22:22:11.557Z,9.30
2023-04-18T22:24:38.894Z,9.30
2023-04-18T22:27:06.176Z,9.30
2023-04-18T22:29:33.391Z,9.30
2023-04-18T22:32:00.570Z,9.40
2023-04-18T22:34:27.748Z,9.30
2023-04-18T22:36:54.917Z,9.30
2023-04-18T22:39:22.104Z,9.30
2023-04-18T22:41:49.279Z,9.30
2023-04-18T22:44:16.649Z,9.30
2023-04-18T22:46:44.489Z,9.40
2023-04-18T22:49:11.782Z,9.30
2023-04-18T22:51:39.288Z,9.30
2023-04-18T22:54:06.475Z,9.30
2023-04-18T22:56:33.620Z,9.20
2023-04-18T22:59:00.886Z,9.20
2023-04-18T23:01:28.172Z,9.20
2023-04-18T23:03:55.785Z,9.20
2023-04-18T23:06:23.351Z,9.20
2023-04-18T23:08:50.498Z,9.20
2023-04-18T23:11:17.714Z,9.20
2023-04-18T23:13:44.977Z,9.10
2023-04-18T23:16:12.286Z,9.00
2023-04-18T23:18:39.473Z,9.00
2023-04-18T23:21:06.702Z,9.00
2023-04-18T23:23:33.913Z,9.00
2023-04-18T23:26:01.135Z,9.00
2023-04-18T23:28:28.357Z,9.00
2023-04-18T23:30:55.568Z,8.90
2023-04-18T23:33:22.743Z,9.00
2023-04-18T23:35:49.924Z,9.00
2023-04-18T23:38:17.152Z,9.00
2023-04-18T23:40:44.551Z,9.00
2023-04-18T23:43:11.724Z,9.00
2023-04-18T23:45:38.893Z,9.00
2023-04-18T23:48:06.882Z,9.00
2023-04-18T23:50:44.176Z,9.00
2023-04-18T23:53:11.349Z,9.00
2023-04-18T23:55:38.893Z,9.00
2023-04-18T23:58:06.061Z,9.00
